Time;durP1;ratioP1;P1;durP2;ratioP2;P2;SDS_P1;SDS_P2;PMS_P1;PMS_P2;Temp;Humidity;BMP_temperature;BMP_pressure;BME280_temperature;BME280_humidity;BME280_pressure;Samples;Min_cycle;Max_cycle;Signal;HPM_P1;HPM_P2
2022/01/05 00:01:53;;;;;;;6.28;2.10;;;3.60;99.90;;;;;;4950462;28;20038;-84
2022/01/05 00:04:19;;;;;;;3.67;2.10;;;3.40;99.90;;;;;;4949235;28;20073;-84
2022/01/05 00:06:45;;;;;;;3.88;1.88;;;3.50;99.90;;;;;;4949592;28;20027;-85
2022/01/05 00:09:10;;;;;;;5.82;2.33;;;3.50;99.90;;;;;;4944130;28;20340;-85
2022/01/05 00:11:36;;;;;;;4.07;1.45;;;3.50;99.90;;;;;;4947574;28;20030;-84
2022/01/05 00:14:01;;;;;;;2.85;1.33;;;3.50;99.90;;;;;;4943272;28;20117;-83
2022/01/05 00:16:27;;;;;;;3.63;1.52;;;3.60;99.90;;;;;;4979883;28;20058;-84
2022/01/05 00:18:53;;;;;;;3.35;1.75;;;3.60;99.90;;;;;;4946350;28;20038;-84
2022/01/05 00:21:19;;;;;;;3.58;2.28;;;3.60;99.90;;;;;;4959253;28;20075;-84
2022/01/05 00:23:44;;;;;;;8.32;2.95;;;3.70;99.90;;;;;;4950979;28;20443;-84
2022/01/05 00:26:10;;;;;;;6.47;1.80;;;3.70;99.90;;;;;;4963444;28;20065;-85
2022/01/05 00:28:35;;;;;;;6.22;3.65;;;4.00;99.90;;;;;;4963956;28;20053;-85
2022/01/05 00:31:01;;;;;;;6.57;3.00;;;3.90;99.90;;;;;;4943167;28;20033;-85
2022/01/05 00:33:26;;;;;;;4.82;2.80;;;3.80;99.90;;;;;;4961276;28;20042;-84
2022/01/05 00:35:52;;;;;;;4.60;2.33;;;3.60;99.90;;;;;;4948216;28;20030;-84
2022/01/05 00:38:17;;;;;;;4.45;1.25;;;3.60;99.90;;;;;;4948398;28;20038;-85
2022/01/05 00:40:43;;;;;;;7.28;2.40;;;3.60;99.90;;;;;;4948421;28;20169;-84
2022/01/05 00:43:08;;;;;;;9.30;3.65;;;3.60;99.90;;;;;;4947724;28;20125;-84
2022/01/05 00:45:34;;;;;;;6.68;3.13;;;3.70;99.90;;;;;;4962319;28;20774;-85
2022/01/05 00:47:59;;;;;;;7.00;3.72;;;3.80;99.90;;;;;;4949379;28;20041;-84
2022/01/05 00:50:25;;;;;;;3.92;1.45;;;3.60;99.90;;;;;;4960169;28;20027;-84
2022/01/05 00:52:52;;;;;;;1.95;1.15;;;3.60;99.90;;;;;;4962737;28;20034;-85
2022/01/05 00:55:18;;;;;;;10.35;3.05;;;3.50;99.90;;;;;;4961873;28;20047;-85
2022/01/05 00:57:45;;;;;;;4.70;1.85;;;3.50;99.90;;;;;;4962490;28;20037;-84
2022/01/05 01:00:11;;;;;;;5.53;2.28;;;3.50;99.90;;;;;;4947695;28;20043;-84
2022/01/05 01:02:36;;;;;;;4.97;2.58;;;3.40;99.90;;;;;;4947636;28;20042;-85
2022/01/05 01:05:02;;;;;;;12.32;2.72;;;3.40;99.90;;;;;;4957902;28;20042;-85
2022/01/05 01:07:27;;;;;;;2.28;1.40;;;3.40;99.90;;;;;;4946551;28;20035;-84
2022/01/05 01:09:53;;;;;;;3.97;2.40;;;3.40;99.90;;;;;;4944692;28;20038;-85
2022/01/05 01:12:19;;;;;;;9.13;4.18;;;3.40;99.90;;;;;;4975566;28;20034;-85
2022/01/05 01:14:44;;;;;;;9.77;4.47;;;3.50;99.90;;;;;;4946121;28;20019;-84
2022/01/05 01:17:10;;;;;;;9.52;3.53;;;3.40;99.90;;;;;;4960749;28;20038;-84
2022/01/05 01:19:35;;;;;;;4.43;2.15;;;3.40;99.90;;;;;;4976366;28;20092;-85
2022/01/05 01:22:01;;;;;;;7.85;2.88;;;3.40;99.90;;;;;;4943601;28;20023;-85
2022/01/05 01:24:26;;;;;;;8.32;3.72;;;3.40;99.90;;;;;;4959883;28;20030;-84
2022/01/05 01:26:52;;;;;;;2.30;1.20;;;3.40;99.90;;;;;;4948272;28;21056;-84
2022/01/05 01:29:17;;;;;;;5.20;2.45;;;3.30;99.90;;;;;;4946794;28;20031;-85
2022/01/05 01:31:43;;;;;;;9.13;3.90;;;3.30;99.90;;;;;;4937756;28;20550;-84
2022/01/05 01:34:08;;;;;;;6.60;3.08;;;3.40;99.90;;;;;;4956257;28;20066;-84
2022/01/05 01:36:34;;;;;;;5.75;2.78;;;3.30;99.90;;;;;;4976552;28;20165;-85
2022/01/05 01:38:59;;;;;;;8.55;3.03;;;3.30;99.90;;;;;;4944286;28;20034;-84
2022/01/05 01:41:25;;;;;;;17.00;4.88;;;3.30;99.90;;;;;;4959294;28;20031;-85
2022/01/05 01:43:51;;;;;;;4.32;2.60;;;3.30;99.90;;;;;;4976998;28;20034;-84
2022/01/05 01:46:16;;;;;;;10.65;2.75;;;3.30;99.90;;;;;;4960052;28;20030;-85
2022/01/05 01:48:42;;;;;;;8.38;3.03;;;3.30;99.90;;;;;;4980648;28;20127;-84
2022/01/05 01:51:07;;;;;;;6.35;2.65;;;3.20;99.90;;;;;;4944594;28;20395;-84
2022/01/05 01:53:33;;;;;;;7.28;2.15;;;3.20;99.90;;;;;;4945179;28;20030;-84
2022/01/05 01:55:59;;;;;;;3.45;2.05;;;3.10;99.90;;;;;;4943769;28;20031;-84
2022/01/05 01:58:25;;;;;;;8.20;2.47;;;3.20;99.90;;;;;;4966164;28;20551;-84
2022/01/05 02:00:51;;;;;;;5.43;2.47;;;3.20;99.90;;;;;;4955305;28;20121;-84
2022/01/05 02:03:16;;;;;;;3.88;1.88;;;3.10;99.90;;;;;;4978995;28;20043;-85
2022/01/05 02:05:42;;;;;;;3.03;1.63;;;3.10;99.90;;;;;;4968066;28;20045;-85
2022/01/05 02:08:07;;;;;;;10.88;3.03;;;3.10;99.90;;;;;;4949335;28;20046;-84
2022/01/05 02:10:33;;;;;;;6.28;1.92;;;3.00;99.90;;;;;;4962426;28;20558;-84
2022/01/05 02:12:59;;;;;;;3.38;1.52;;;3.00;99.90;;;;;;4963957;28;20037;-84
2022/01/05 02:15:24;;;;;;;13.88;4.65;;;2.90;99.90;;;;;;4969280;28;20085;-84
2022/01/05 02:18:08;;;;;;;13.25;4.88;;;3.00;99.90;;;;;;4961508;28;20038;-84
2022/01/05 02:20:33;;;;;;;9.07;2.42;;;2.90;99.90;;;;;;4958584;28;20042;-85
2022/01/05 02:22:59;;;;;;;7.10;3.67;;;2.90;99.90;;;;;;4963916;28;20022;-84
2022/01/05 02:25:24;;;;;;;20.70;5.30;;;2.90;99.90;;;;;;4947933;28;20114;-85
2022/01/05 02:27:51;;;;;;;23.00;5.97;;;2.90;99.90;;;;;;4955216;28;20085;-84
2022/01/05 02:30:21;;;;;;;10.13;5.35;;;2.90;99.90;;;;;;4965171;28;20073;-84
2022/01/05 02:32:47;;;;;;;13.18;4.55;;;3.00;99.90;;;;;;4976512;28;20030;-85
2022/01/05 02:35:15;;;;;;;16.40;7.00;;;2.80;99.90;;;;;;4947092;28;20096;-85
2022/01/05 02:37:45;;;;;;;12.43;6.18;;;2.80;99.90;;;;;;4968642;28;20077;-85
2022/01/05 02:40:11;;;;;;;23.92;6.90;;;2.80;99.90;;;;;;4947757;28;20038;-85
2022/01/05 02:42:37;;;;;;;13.07;6.55;;;2.80;99.90;;;;;;4978975;28;20034;-85
2022/01/05 02:45:03;;;;;;;20.90;7.70;;;2.80;99.90;;;;;;4950148;28;20097;-84
2022/01/05 02:47:28;;;;;;;12.68;4.72;;;2.80;99.90;;;;;;4949957;28;20030;-85
2022/01/05 02:49:57;;;;;;;11.43;5.25;;;2.80;99.90;;;;;;4954052;28;20026;-84
2022/01/05 02:52:23;;;;;;;11.65;4.90;;;2.80;99.90;;;;;;4962969;28;20043;-85
2022/01/05 02:54:48;;;;;;;7.18;3.65;;;2.80;99.90;;;;;;4947984;28;20037;-85
2022/01/05 02:57:14;;;;;;;10.23;5.43;;;2.90;99.90;;;;;;4948471;28;20054;-84
2022/01/05 02:59:40;;;;;;;11.50;3.97;;;2.80;99.90;;;;;;4950561;28;20693;-84
2022/01/05 03:02:05;;;;;;;15.02;4.50;;;2.80;99.90;;;;;;4947129;28;20066;-84
2022/01/05 03:04:31;;;;;;;12.85;4.10;;;2.70;99.90;;;;;;4964953;28;20081;-84
2022/01/05 03:06:56;;;;;;;14.65;4.50;;;2.80;99.90;;;;;;4964766;28;20035;-85
2022/01/05 03:09:22;;;;;;;11.65;5.18;;;2.80;99.90;;;;;;4947480;28;20045;-84
2022/01/05 03:11:47;;;;;;;9.57;4.35;;;2.70;99.90;;;;;;4953051;28;20387;-85
2022/01/05 03:14:13;;;;;;;12.55;4.68;;;2.60;99.90;;;;;;4946942;28;20037;-84
2022/01/05 03:16:38;;;;;;;6.07;2.53;;;2.60;99.90;;;;;;4981738;28;20023;-84
2022/01/05 03:19:04;;;;;;;14.30;4.80;;;2.60;99.90;;;;;;4963980;28;20023;-85
2022/01/05 03:21:29;;;;;;;10.82;3.65;;;2.60;99.90;;;;;;4944761;28;20023;-84
2022/01/05 03:23:55;;;;;;;9.30;3.50;;;2.50;99.90;;;;;;4954956;28;20034;-82
2022/01/05 03:26:20;;;;;;;14.68;4.63;;;2.50;99.90;;;;;;4950218;28;20050;-82
2022/01/05 03:28:46;;;;;;;9.13;3.67;;;2.50;99.90;;;;;;4967197;28;20031;-82
2022/01/05 03:31:11;;;;;;;16.17;3.72;;;2.40;99.90;;;;;;4948739;28;20039;-82
2022/01/05 03:33:37;;;;;;;18.75;5.35;;;2.40;99.90;;;;;;4963513;28;20535;-82
2022/01/05 03:36:03;;;;;;;21.42;4.00;;;2.40;99.90;;;;;;4948074;28;20047;-82
2022/01/05 03:38:29;;;;;;;5.05;3.35;;;2.30;99.90;;;;;;4961296;28;20395;-82
2022/01/05 03:40:55;;;;;;;15.70;4.68;;;2.40;99.90;;;;;;4945198;28;20133;-82
2022/01/05 03:43:20;;;;;;;4.45;2.60;;;2.30;99.90;;;;;;4958426;28;20130;-82
2022/01/05 03:45:47;;;;;;;6.05;3.10;;;2.20;99.90;;;;;;4953793;28;20068;-81
2022/01/05 03:48:14;;;;;;;16.77;5.05;;;2.10;99.90;;;;;;4974331;28;20045;-82
2022/01/05 03:50:39;;;;;;;12.95;3.10;;;2.30;99.90;;;;;;4952068;28;20114;-81
2022/01/05 03:53:05;;;;;;;10.43;4.35;;;2.20;99.90;;;;;;4950857;28;20117;-82
2022/01/05 03:55:32;;;;;;;3.05;1.10;;;2.10;99.90;;;;;;4975332;28;20079;-82
2022/01/05 03:57:57;;;;;;;14.48;4.13;;;2.10;99.90;;;;;;4954798;28;20037;-82
2022/01/05 04:00:24;;;;;;;8.07;3.63;;;2.20;99.90;;;;;;4944987;28;20035;-82
2022/01/05 04:02:50;;;;;;;7.22;2.85;;;2.00;99.90;;;;;;4964637;28;20042;-82
2022/01/05 04:05:15;;;;;;;6.85;2.67;;;2.00;99.90;;;;;;4947437;28;20041;-82
2022/01/05 04:07:41;;;;;;;11.52;3.13;;;2.10;99.90;;;;;;4947207;28;20036;-82
2022/01/05 04:10:07;;;;;;;9.18;2.30;;;2.00;99.90;;;;;;4940675;28;20042;-82
2022/01/05 04:12:32;;;;;;;13.95;2.45;;;2.00;99.90;;;;;;4962963;28;20068;-82
2022/01/05 04:14:58;;;;;;;12.13;3.97;;;1.90;99.90;;;;;;4962342;28;20900;-82
2022/01/05 04:17:23;;;;;;;7.93;2.22;;;1.90;99.90;;;;;;4941896;28;20039;-82
2022/01/05 04:19:49;;;;;;;13.63;3.75;;;1.80;99.90;;;;;;4963866;28;20059;-82
2022/01/05 04:22:15;;;;;;;7.07;3.00;;;1.90;99.90;;;;;;4945227;28;20129;-82
2022/01/05 04:24:40;;;;;;;8.13;2.05;;;1.80;99.90;;;;;;4948115;28;20034;-82
2022/01/05 04:27:06;;;;;;;12.15;3.95;;;1.90;99.90;;;;;;4970464;28;20030;-82
2022/01/05 04:29:31;;;;;;;11.45;4.45;;;1.80;99.90;;;;;;4962628;28;20089;-82
2022/01/05 04:31:57;;;;;;;13.52;2.25;;;1.70;99.90;;;;;;4950468;28;20710;-82
2022/01/05 04:34:22;;;;;;;9.30;3.85;;;1.70;99.90;;;;;;4947937;28;20031;-82
2022/01/05 04:36:48;;;;;;;6.68;3.17;;;1.60;99.90;;;;;;4961462;28;20026;-82
2022/01/05 04:39:13;;;;;;;9.90;3.20;;;1.60;99.90;;;;;;4944577;28;20050;-82
2022/01/05 04:41:39;;;;;;;12.05;3.33;;;1.50;99.90;;;;;;4967545;28;20030;-82
2022/01/05 04:44:04;;;;;;;16.55;4.30;;;1.60;99.90;;;;;;4973632;28;20035;-82
2022/01/05 04:46:30;;;;;;;8.50;2.83;;;1.60;99.90;;;;;;4964598;28;20478;-82
2022/01/05 04:48:55;;;;;;;14.90;2.97;;;1.50;99.90;;;;;;4952821;28;20081;-82
2022/01/05 04:51:21;;;;;;;45.30;4.50;;;1.60;99.90;;;;;;4945695;28;20114;-82
2022/01/05 04:53:46;;;;;;;8.75;2.60;;;1.60;99.90;;;;;;4946562;28;20434;-82
2022/01/05 04:56:12;;;;;;;10.73;2.67;;;1.50;99.90;;;;;;4946126;28;20629;-81
2022/01/05 04:58:37;;;;;;;7.63;2.40;;;1.50;99.90;;;;;;4959091;28;20034;-82
2022/01/05 05:01:03;;;;;;;17.98;3.47;;;1.50;99.90;;;;;;4941283;28;20088;-81
2022/01/05 05:03:28;;;;;;;10.00;2.05;;;1.50;99.90;;;;;;4958583;28;20045;-81
2022/01/05 05:05:54;;;;;;;3.33;1.90;;;1.60;99.90;;;;;;4948884;28;20397;-81
2022/01/05 05:08:19;;;;;;;9.43;3.97;;;1.50;99.90;;;;;;4964386;28;20081;-82
2022/01/05 05:10:45;;;;;;;14.75;3.38;;;1.40;99.90;;;;;;4948999;28;20045;-81
2022/01/05 05:13:11;;;;;;;11.60;2.72;;;1.50;99.90;;;;;;4950279;28;20466;-82
2022/01/05 05:15:37;;;;;;;8.65;3.20;;;1.50;99.90;;;;;;4963156;28;20029;-82
2022/01/05 05:18:03;;;;;;;18.83;3.15;;;1.50;99.90;;;;;;4948761;28;20475;-82
2022/01/05 05:20:28;;;;;;;10.18;2.45;;;1.50;99.90;;;;;;4961886;28;20039;-82
2022/01/05 05:22:54;;;;;;;7.97;1.83;;;1.40;99.90;;;;;;4945928;28;20034;-82
2022/01/05 05:25:19;;;;;;;4.60;1.42;;;1.50;99.90;;;;;;4960224;28;20817;-82
2022/01/05 05:27:45;;;;;;;8.18;1.90;;;1.40;99.90;;;;;;4946286;28;20038;-81
2022/01/05 05:30:11;;;;;;;12.45;3.20;;;1.60;99.90;;;;;;4947667;28;20034;-82
2022/01/05 05:32:37;;;;;;;9.05;2.50;;;1.50;99.90;;;;;;4967493;28;20038;-82
2022/01/05 05:35:02;;;;;;;7.82;2.60;;;1.50;99.90;;;;;;4967512;28;20046;-82
2022/01/05 05:37:28;;;;;;;5.53;1.85;;;1.40;99.90;;;;;;4954911;28;20055;-81
2022/01/05 05:39:54;;;;;;;9.35;2.47;;;1.50;99.90;;;;;;4954684;28;20133;-82
2022/01/05 05:42:19;;;;;;;8.73;2.20;;;1.50;99.90;;;;;;4960215;28;20039;-82
2022/01/05 05:44:45;;;;;;;6.25;2.35;;;1.50;99.90;;;;;;4966649;28;20642;-82
2022/01/05 05:47:10;;;;;;;9.15;2.85;;;1.50;99.90;;;;;;4964023;28;20564;-82
2022/01/05 05:49:36;;;;;;;8.98;2.17;;;1.50;99.90;;;;;;4964122;28;20054;-82
2022/01/05 05:52:01;;;;;;;6.25;2.50;;;1.50;99.90;;;;;;4982184;28;20053;-82
2022/01/05 05:54:27;;;;;;;5.68;1.63;;;1.60;99.90;;;;;;4967653;28;20030;-82
2022/01/05 05:56:53;;;;;;;7.05;1.75;;;1.60;99.90;;;;;;4951460;28;20031;-82
2022/01/05 05:59:18;;;;;;;5.68;1.58;;;1.60;99.90;;;;;;4948811;28;20530;-82
2022/01/05 06:01:44;;;;;;;9.38;2.00;;;1.60;99.90;;;;;;4966965;28;20019;-82
2022/01/05 06:04:09;;;;;;;3.95;1.30;;;1.60;99.90;;;;;;4963494;28;20062;-82
2022/01/05 06:06:35;;;;;;;8.05;2.53;;;1.60;99.90;;;;;;4973989;28;20031;-82
2022/01/05 06:09:00;;;;;;;10.98;1.85;;;1.60;99.90;;;;;;4974377;28;20046;-82
2022/01/05 06:11:26;;;;;;;9.23;2.03;;;1.70;99.90;;;;;;4964308;28;20153;-82
2022/01/05 06:13:52;;;;;;;19.30;2.97;;;1.70;99.90;;;;;;4952897;28;20458;-82
2022/01/05 06:16:18;;;;;;;8.40;2.30;;;1.50;99.90;;;;;;4946773;28;20039;-82
2022/01/05 06:18:44;;;;;;;5.25;1.58;;;1.60;99.90;;;;;;4954626;28;20675;-82
2022/01/05 06:21:09;;;;;;;11.20;2.42;;;1.60;99.90;;;;;;4948337;28;20116;-82
2022/01/05 06:23:35;;;;;;;12.85;3.28;;;1.70;99.90;;;;;;4975947;28;20491;-82
2022/01/05 06:26:00;;;;;;;14.45;3.08;;;1.70;99.90;;;;;;4951246;28;20552;-81
2022/01/05 06:28:26;;;;;;;10.60;3.25;;;1.40;99.90;;;;;;4949000;28;20038;-81
2022/01/05 06:30:51;;;;;;;15.32;3.13;;;1.50;99.90;;;;;;4950649;28;20035;-81
2022/01/05 06:33:17;;;;;;;10.75;2.90;;;1.60;99.90;;;;;;4965070;28;20043;-81
2022/01/05 06:35:43;;;;;;;10.90;1.83;;;1.60;99.90;;;;;;4977599;28;20027;-82
2022/01/05 06:38:08;;;;;;;14.88;1.58;;;1.70;99.90;;;;;;4961515;28;20136;-82
2022/01/05 06:40:34;;;;;;;11.02;2.28;;;1.60;99.90;;;;;;4976184;28;20209;-82
2022/01/05 06:43:01;;;;;;;8.80;2.20;;;1.60;99.90;;;;;;4943961;28;20039;-81
2022/01/05 06:45:26;;;;;;;14.20;3.13;;;1.60;99.90;;;;;;4951122;28;20049;-81
2022/01/05 06:47:52;;;;;;;3.83;1.98;;;1.60;99.90;;;;;;4954081;28;20498;-81
2022/01/05 06:50:17;;;;;;;9.38;3.40;;;1.70;99.90;;;;;;4963301;28;20046;-81
2022/01/05 06:52:43;;;;;;;5.13;1.67;;;1.70;99.90;;;;;;4966833;28;20433;-82
2022/01/05 06:55:09;;;;;;;8.50;1.92;;;1.70;99.90;;;;;;4951966;28;20042;-83
2022/01/05 06:57:37;;;;;;;13.98;4.47;;;1.80;99.90;;;;;;4949983;28;22035;-83
2022/01/05 07:00:03;;;;;;;14.75;2.72;;;1.90;99.90;;;;;;4959839;28;20548;-84
2022/01/05 07:02:29;;;;;;;7.00;2.35;;;1.80;99.90;;;;;;4955182;28;20067;-84
2022/01/05 07:04:55;;;;;;;14.80;3.42;;;1.80;99.90;;;;;;4962014;28;20054;-84
2022/01/05 07:07:21;;;;;;;9.15;1.88;;;1.70;99.90;;;;;;4950196;28;20113;-84
2022/01/05 07:09:46;;;;;;;6.13;1.70;;;1.80;99.90;;;;;;4950487;28;20552;-83
2022/01/05 07:12:12;;;;;;;15.48;3.40;;;1.80;99.90;;;;;;4946658;28;20072;-83
2022/01/05 07:14:59;;;;;;;10.77;2.38;;;1.90;99.90;;;;;;4963090;28;20031;-84
2022/01/05 07:17:25;;;;;;;10.63;3.00;;;1.80;99.90;;;;;;4977237;28;20085;-84
2022/01/05 07:19:50;;;;;;;12.50;1.73;;;1.70;99.90;;;;;;4950944;28;20576;-83
2022/01/05 07:22:16;;;;;;;13.60;1.98;;;1.70;99.90;;;;;;4949944;28;20038;-84
2022/01/05 07:24:41;;;;;;;17.77;2.75;;;1.70;99.90;;;;;;4948848;28;20058;-84
2022/01/05 07:27:07;;;;;;;12.40;2.60;;;1.70;99.90;;;;;;4946066;28;20097;-84
2022/01/05 07:29:32;;;;;;;5.72;1.40;;;1.60;99.90;;;;;;4976864;28;20125;-84
2022/01/05 07:31:58;;;;;;;4.40;2.22;;;1.60;99.90;;;;;;4942749;28;20094;-83
2022/01/05 07:34:23;;;;;;;6.03;2.80;;;1.60;99.90;;;;;;4944999;28;20030;-84
2022/01/05 07:36:49;;;;;;;10.18;3.75;;;1.60;99.90;;;;;;4962689;28;20035;-83
2022/01/05 07:39:14;;;;;;;11.73;3.20;;;1.50;99.90;;;;;;4945328;28;20046;-84
2022/01/05 07:41:41;;;;;;;18.08;2.13;;;1.60;99.90;;;;;;4948065;28;20122;-84
2022/01/05 07:44:07;;;;;;;14.02;2.30;;;1.70;99.90;;;;;;4940933;28;20034;-84
2022/01/05 07:46:33;;;;;;;6.53;3.00;;;1.70;99.90;;;;;;4964533;28;20109;-84
2022/01/05 07:48:59;;;;;;;5.15;2.22;;;1.70;99.90;;;;;;4945130;28;20074;-84
2022/01/05 07:51:25;;;;;;;7.53;2.58;;;1.70;99.90;;;;;;4962901;28;20065;-84
2022/01/05 07:53:50;;;;;;;16.70;3.28;;;1.80;99.90;;;;;;4952916;28;21087;-84
2022/01/05 07:56:16;;;;;;;4.93;2.30;;;1.90;99.90;;;;;;4952539;28;20026;-84
2022/01/05 07:58:42;;;;;;;5.18;1.73;;;1.70;99.90;;;;;;4977988;28;20042;-84
2022/01/05 08:01:08;;;;;;;10.55;3.08;;;1.90;99.90;;;;;;4960061;28;20585;-84
2022/01/05 08:03:33;;;;;;;8.77;2.72;;;1.90;99.90;;;;;;4959729;28;20038;-84
2022/01/05 08:06:05;;;;;;;13.52;2.70;;;1.90;99.90;;;;;;4945737;28;20043;-83
2022/01/05 08:08:31;;;;;;;18.42;3.83;;;2.10;99.90;;;;;;4946286;28;20050;-84
2022/01/05 08:10:56;;;;;;;9.65;2.50;;;1.90;99.90;;;;;;4951722;28;20039;-84
2022/01/05 08:13:24;;;;;;;3.67;1.27;;;2.00;99.90;;;;;;4946770;28;20392;-84
2022/01/05 08:15:50;;;;;;;8.10;2.03;;;2.00;99.90;;;;;;4951173;28;20037;-84
2022/01/05 08:18:15;;;;;;;6.97;2.10;;;2.00;99.90;;;;;;4941539;28;20057;-84
2022/01/05 08:20:41;;;;;;;9.93;1.52;;;2.10;99.90;;;;;;4947700;28;20030;-84
2022/01/05 08:23:06;;;;;;;15.23;3.42;;;2.10;99.90;;;;;;4950476;28;20046;-84
2022/01/05 08:25:32;;;;;;;13.02;3.20;;;2.20;99.90;;;;;;4961673;28;20034;-84
2022/01/05 08:27:58;;;;;;;8.93;3.13;;;2.20;99.90;;;;;;4962667;28;20089;-84
2022/01/05 08:30:24;;;;;;;19.17;4.32;;;2.10;99.90;;;;;;4948095;28;20495;-85
2022/01/05 08:32:51;;;;;;;12.98;3.65;;;2.20;99.90;;;;;;4951481;28;20038;-85
2022/01/05 08:35:17;;;;;;;6.93;2.00;;;2.30;99.90;;;;;;4962504;28;20062;-86
2022/01/05 08:37:46;;;;;;;12.50;2.88;;;2.40;99.90;;;;;;4929663;28;20030;-84
2022/01/05 08:40:13;;;;;;;10.57;2.15;;;2.20;99.90;;;;;;4962750;28;20109;-84
2022/01/05 08:42:39;;;;;;;11.30;2.10;;;2.40;99.90;;;;;;4968476;28;20183;-84
2022/01/05 08:45:05;;;;;;;15.48;3.42;;;2.40;99.90;;;;;;4945660;28;20485;-83
2022/01/05 08:47:31;;;;;;;8.77;2.60;;;2.50;99.90;;;;;;4972930;28;20424;-84
2022/01/05 08:49:56;;;;;;;11.85;2.17;;;2.40;99.90;;;;;;4951238;28;20035;-84
2022/01/05 08:52:22;;;;;;;11.18;2.15;;;2.50;99.90;;;;;;4960292;28;20477;-84
2022/01/05 08:54:47;;;;;;;8.15;2.13;;;2.50;99.90;;;;;;4947649;28;20035;-83
2022/01/05 08:57:14;;;;;;;9.35;3.03;;;2.50;99.90;;;;;;4960912;28;20122;-84
2022/01/05 08:59:40;;;;;;;11.50;2.92;;;2.50;99.90;;;;;;4976193;28;20029;-85
2022/01/05 09:02:06;;;;;;;11.13;2.60;;;2.50;99.90;;;;;;4958960;28;20027;-84
2022/01/05 09:04:31;;;;;;;6.25;2.72;;;2.60;99.90;;;;;;4962730;28;20042;-85
2022/01/05 09:06:57;;;;;;;6.18;1.60;;;2.60;99.90;;;;;;4960566;28;20403;-84
2022/01/05 09:09:24;;;;;;;11.73;4.13;;;2.60;99.90;;;;;;4959646;28;20046;-85
2022/01/05 09:11:49;;;;;;;10.57;3.42;;;2.60;99.90;;;;;;4949740;28;20059;-85
2022/01/05 09:14:15;;;;;;;12.23;2.53;;;2.70;99.90;;;;;;4942793;28;20053;-85
2022/01/05 09:16:40;;;;;;;9.43;2.25;;;2.60;99.90;;;;;;4967368;28;20089;-84
2022/01/05 09:19:06;;;;;;;11.05;4.80;;;2.70;99.90;;;;;;4953030;28;20054;-84
2022/01/05 09:21:32;;;;;;;7.00;3.15;;;2.70;99.90;;;;;;4944816;28;20070;-85
2022/01/05 09:23:59;;;;;;;18.40;4.28;;;2.80;99.90;;;;;;4952448;28;20046;-84
2022/01/05 09:26:24;;;;;;;16.95;4.60;;;2.70;99.90;;;;;;4963338;28;20038;-84
2022/01/05 09:28:50;;;;;;;18.40;5.15;;;2.80;99.90;;;;;;4949825;28;20173;-84
2022/01/05 09:31:15;;;;;;;11.55;3.17;;;2.80;99.90;;;;;;4960108;28;20084;-84
2022/01/05 09:33:41;;;;;;;15.85;5.68;;;2.80;99.90;;;;;;4964132;28;22033;-84
2022/01/05 09:36:15;;;;;;;13.50;5.00;;;2.80;99.90;;;;;;4950305;28;20033;-85
2022/01/05 09:44:13;;;;;;;10.18;4.03;;;2.90;99.90;;;;;;4964761;28;20081;-84
2022/01/05 09:46:55;;;;;;;6.75;4.00;;;2.90;99.90;;;;;;4966975;28;20474;-83
2022/01/05 09:49:31;;;;;;;9.43;4.28;;;2.90;99.90;;;;;;4965767;28;20219;-85
2022/01/05 09:52:18;;;;;;;12.57;5.20;;;3.00;99.90;;;;;;4941838;28;20030;-84
2022/01/05 09:54:45;;;;;;;9.05;4.90;;;3.00;99.90;;;;;;4963806;28;20035;-84
2022/01/05 09:57:11;;;;;;;12.65;4.13;;;3.00;99.90;;;;;;4948127;28;20030;-85
2022/01/05 09:59:36;;;;;;;12.75;4.47;;;3.10;99.90;;;;;;4939133;28;20560;-85
2022/01/05 10:02:05;;;;;;;17.42;5.80;;;3.20;99.90;;;;;;4956496;28;20146;-85
2022/01/05 10:04:31;;;;;;;13.80;5.80;;;3.20;99.90;;;;;;4956403;28;20046;-85
2022/01/05 10:06:57;;;;;;;15.70;5.43;;;3.30;99.90;;;;;;4950977;28;20394;-85
2022/01/05 10:09:22;;;;;;;12.40;5.43;;;3.40;99.90;;;;;;4961348;28;20043;-85
2022/01/05 10:11:48;;;;;;;14.35;5.78;;;3.30;99.90;;;;;;4945294;28;20121;-85
2022/01/05 10:14:14;;;;;;;9.07;4.25;;;3.40;99.90;;;;;;4946384;28;20498;-85
2022/01/05 10:16:59;;;;;;;11.75;4.20;;;3.40;99.90;;;;;;4942362;28;20061;-85
2022/01/05 10:19:25;;;;;;;7.80;3.53;;;3.40;99.90;;;;;;4973310;28;20070;-85
2022/01/05 10:21:51;;;;;;;18.80;6.18;;;3.30;99.90;;;;;;4939467;28;20039;-85
2022/01/05 10:24:17;;;;;;;14.90;6.30;;;3.30;99.90;;;;;;4945764;28;20406;-85
2022/01/05 10:26:43;;;;;;;15.02;5.07;;;3.30;99.90;;;;;;4953039;28;20030;-85
2022/01/05 10:29:20;;;;;;;19.60;6.25;;;3.20;99.90;;;;;;4954340;28;20054;-85
2022/01/05 10:32:41;;;;;;;19.83;6.38;;;3.20;99.90;;;;;;4951969;28;20088;-85
2022/01/05 10:35:15;;;;;;;19.25;5.82;;;3.10;99.90;;;;;;4964530;28;20038;-85
2022/01/05 10:37:45;;;;;;;8.27;4.88;;;3.20;99.90;;;;;;4976906;28;20149;-85
2022/01/05 10:40:19;;;;;;;15.77;6.32;;;3.10;99.90;;;;;;4976388;28;20042;-85
2022/01/05 10:42:49;;;;;;;19.20;6.07;;;3.10;99.90;;;;;;4966656;28;20034;-85
2022/01/05 10:45:16;;;;;;;17.15;4.60;;;3.10;99.90;;;;;;4959881;28;20027;-85
2022/01/05 10:47:59;;;;;;;13.73;5.38;;;3.20;99.90;;;;;;4971245;28;20034;-85
2022/01/05 10:50:25;;;;;;;14.40;5.10;;;3.00;99.90;;;;;;4963554;28;20023;-85
2022/01/05 10:52:55;;;;;;;11.00;4.57;;;3.10;99.90;;;;;;4953922;28;20541;-84
2022/01/05 10:55:22;;;;;;;16.75;5.97;;;3.10;99.90;;;;;;4949025;28;20036;-85
2022/01/05 10:57:54;;;;;;;11.60;5.13;;;3.10;99.90;;;;;;4938277;28;20044;-85
2022/01/05 11:00:52;;;;;;;10.30;4.85;;;3.10;99.90;;;;;;4974468;28;20104;-85
2022/01/05 11:03:25;;;;;;;13.93;4.43;;;3.10;99.90;;;;;;4980848;28;20093;-84
2022/01/05 11:06:02;;;;;;;16.33;6.18;;;3.10;99.90;;;;;;4953489;28;20030;-84
2022/01/05 11:08:32;;;;;;;14.43;5.18;;;3.10;99.90;;;;;;4965872;28;20066;-84
2022/01/05 11:10:58;;;;;;;11.48;5.03;;;3.10;99.90;;;;;;4950531;28;20510;-84
2022/01/05 11:13:27;;;;;;;14.93;5.78;;;3.10;99.90;;;;;;4947222;28;20045;-84
2022/01/05 11:16:01;;;;;;;14.07;3.80;;;3.10;99.90;;;;;;4946971;28;20081;-84
2022/01/05 11:18:31;;;;;;;14.63;5.40;;;3.00;99.90;;;;;;4947039;28;20049;-84
2022/01/05 11:21:02;;;;;;;17.17;5.80;;;3.10;99.90;;;;;;4952574;28;20025;-84
2022/01/05 11:23:28;;;;;;;11.25;3.88;;;3.10;99.90;;;;;;4958125;28;20042;-85
2022/01/05 11:25:58;;;;;;;5.05;2.40;;;3.10;99.90;;;;;;4946764;28;20034;-84
2022/01/05 11:28:25;;;;;;;13.07;4.15;;;3.10;99.90;;;;;;4948599;28;20448;-85
2022/01/05 11:30:57;;;;;;;5.65;2.92;;;3.10;99.90;;;;;;4952063;28;20117;-84
2022/01/05 11:33:23;;;;;;;8.25;3.28;;;3.10;99.90;;;;;;4947740;28;20041;-84
2022/01/05 11:35:54;;;;;;;21.17;5.22;;;3.10;99.90;;;;;;4952571;28;20034;-84
2022/01/05 11:38:20;;;;;;;9.98;3.80;;;3.10;99.90;;;;;;4966600;28;20126;-84
2022/01/05 11:40:51;;;;;;;9.07;3.67;;;3.10;99.90;;;;;;4949470;28;20125;-84
2022/01/05 11:43:22;;;;;;;18.50;4.72;;;3.00;99.90;;;;;;4946040;28;20502;-84
2022/01/05 11:45:48;;;;;;;14.43;5.38;;;3.10;99.90;;;;;;4967262;28;20034;-84
2022/01/05 11:48:13;;;;;;;8.65;4.28;;;3.00;99.90;;;;;;4944810;28;20088;-84
2022/01/05 11:50:46;;;;;;;11.88;3.65;;;3.10;99.90;;;;;;4981544;28;20570;-85
2022/01/05 11:53:12;;;;;;;14.45;4.97;;;3.10;99.90;;;;;;4959996;28;20491;-84
2022/01/05 11:55:59;;;;;;;16.45;4.68;;;3.10;99.90;;;;;;4950157;28;20089;-85
2022/01/05 11:58:26;;;;;;;10.75;5.00;;;3.10;99.90;;;;;;4977699;28;20045;-84
2022/01/05 12:01:17;;;;;;;19.00;6.20;;;3.10;99.90;;;;;;4961459;28;20502;-84
2022/01/05 12:03:58;;;;;;;10.38;4.40;;;3.10;99.90;;;;;;4979368;28;20045;-84
2022/01/05 12:06:24;;;;;;;8.68;4.38;;;3.10;99.90;;;;;;4979402;28;20057;-85
2022/01/05 12:08:53;;;;;;;11.93;3.95;;;3.20;99.90;;;;;;4969258;28;20026;-84
2022/01/05 12:11:28;;;;;;;11.40;4.78;;;3.20;99.90;;;;;;4964782;28;20046;-84
2022/01/05 12:13:54;;;;;;;20.97;6.63;;;3.20;99.90;;;;;;4975885;28;20038;-84
2022/01/05 12:16:19;;;;;;;9.50;3.28;;;3.20;99.90;;;;;;4960790;28;20034;-84
2022/01/05 12:18:48;;;;;;;11.05;4.47;;;3.20;99.90;;;;;;4942689;28;20161;-84
2022/01/05 12:21:45;;;;;;;22.33;5.65;;;3.30;99.90;;;;;;4950714;28;20038;-84
2022/01/05 12:24:11;;;;;;;7.82;3.55;;;3.30;99.90;;;;;;4961068;28;20130;-85
2022/01/05 12:26:37;;;;;;;8.68;3.70;;;3.30;99.90;;;;;;4960942;28;20034;-85
2022/01/05 12:29:05;;;;;;;18.92;6.10;;;3.30;99.90;;;;;;4944041;28;20498;-84
2022/01/05 12:32:03;;;;;;;17.88;4.47;;;3.40;99.90;;;;;;4962828;28;20034;-85
2022/01/05 12:34:56;;;;;;;19.30;6.43;;;3.40;99.90;;;;;;4926750;28;20104;-85
2022/01/05 12:37:51;;;;;;;17.77;5.55;;;3.40;99.90;;;;;;4983365;28;20042;-84
2022/01/05 12:40:31;;;;;;;16.42;5.65;;;3.50;99.90;;;;;;4967695;28;20495;-85
2022/01/05 12:43:06;;;;;;;17.88;4.75;;;3.50;99.90;;;;;;4966036;28;20039;-85
2022/01/05 12:46:00;;;;;;;13.98;4.78;;;3.50;99.90;;;;;;4975602;28;20578;-85
2022/01/05 12:51:32;;;;;;;20.55;5.45;;;3.70;99.90;;;;;;4981257;28;20031;-85
2022/01/05 13:00:41;;;;;;;17.50;6.03;;;3.70;99.90;;;;;;4974494;28;20509;-85
2022/01/05 13:03:07;;;;;;;11.23;4.60;;;3.70;99.90;;;;;;4945553;28;20109;-85
2022/01/05 13:09:46;;;;;;;14.02;6.03;;;3.80;99.90;;;;;;4960865;28;20034;-85
2022/01/05 13:12:13;;;;;;;20.80;4.45;;;3.80;99.90;;;;;;4953555;28;20082;-85